sensor_id;sensor_type;location;lat;lon;timestamp;P1;durP1;ratioP1;P2;durP2;ratioP2
15153;SDS011;7677;41.896;25.004;2023-06-22T00:02:18;4.47;;;4.07;;
15153;SDS011;7677;41.896;25.004;2023-06-22T00:04:45;4.03;;;3.72;;
15153;SDS011;7677;41.896;25.004;2023-06-22T00:07:14;4.70;;;4.05;;
15153;SDS011;7677;41.896;25.004;2023-06-22T00:09:41;5.15;;;3.88;;
15153;SDS011;7677;41.896;25.004;2023-06-22T00:12:08;3.25;;;2.97;;
15153;SDS011;7677;41.896;25.004;2023-06-22T00:14:35;3.75;;;3.42;;
15153;SDS011;7677;41.896;25.004;2023-06-22T00:17:02;4.22;;;3.83;;
15153;SDS011;7677;41.896;25.004;2023-06-22T00:19:30;4.28;;;3.60;;
15153;SDS011;7677;41.896;25.004;2023-06-22T00:21:57;6.45;;;3.45;;
15153;SDS011;7677;41.896;25.004;2023-06-22T00:24:26;5.70;;;4.30;;
15153;SDS011;7677;41.896;25.004;2023-06-22T00:26:54;4.35;;;3.55;;
15153;SDS011;7677;41.896;25.004;2023-06-22T00:29:21;4.32;;;3.85;;
15153;SDS011;7677;41.896;25.004;2023-06-22T00:31:48;3.63;;;3.30;;
15153;SDS011;7677;41.896;25.004;2023-06-22T00:34:15;4.30;;;3.72;;
15153;SDS011;7677;41.896;25.004;2023-06-22T00:36:42;4.40;;;3.83;;
15153;SDS011;7677;41.896;25.004;2023-06-22T00:39:09;3.83;;;3.42;;
15153;SDS011;7677;41.896;25.004;2023-06-22T00:41:38;4.05;;;3.70;;
15153;SDS011;7677;41.896;25.004;2023-06-22T00:44:05;4.07;;;3.67;;
15153;SDS011;7677;41.896;25.004;2023-06-22T00:46:33;3.70;;;3.25;;
15153;SDS011;7677;41.896;25.004;2023-06-22T00:49:01;4.45;;;4.03;;
15153;SDS011;7677;41.896;25.004;2023-06-22T00:51:30;4.00;;;3.65;;
15153;SDS011;7677;41.896;25.004;2023-06-22T00:53:58;3.65;;;3.25;;
15153;SDS011;7677;41.896;25.004;2023-06-22T00:56:25;4.00;;;3.60;;
15153;SDS011;7677;41.896;25.004;2023-06-22T00:58:56;6.32;;;4.28;;
15153;SDS011;7677;41.896;25.004;2023-06-22T01:01:24;4.00;;;3.60;;
15153;SDS011;7677;41.896;25.004;2023-06-22T01:03:51;4.20;;;3.80;;
15153;SDS011;7677;41.896;25.004;2023-06-22T01:06:25;3.90;;;3.42;;
15153;SDS011;7677;41.896;25.004;2023-06-22T01:09:00;3.75;;;3.45;;
15153;SDS011;7677;41.896;25.004;2023-06-22T01:11:31;4.47;;;3.83;;
15153;SDS011;7677;41.896;25.004;2023-06-22T01:14:04;3.78;;;3.40;;
15153;SDS011;7677;41.896;25.004;2023-06-22T01:16:34;4.15;;;3.75;;
15153;SDS011;7677;41.896;25.004;2023-06-22T01:19:06;3.78;;;3.47;;
15153;SDS011;7677;41.896;25.004;2023-06-22T01:21:40;3.88;;;3.58;;
15153;SDS011;7677;41.896;25.004;2023-06-22T01:24:10;4.60;;;3.90;;
15153;SDS011;7677;41.896;25.004;2023-06-22T01:26:46;4.15;;;3.75;;
15153;SDS011;7677;41.896;25.004;2023-06-22T01:29:22;4.20;;;3.30;;
15153;SDS011;7677;41.896;25.004;2023-06-22T01:31:51;6.05;;;3.58;;
15153;SDS011;7677;41.896;25.004;2023-06-22T01:34:19;4.60;;;3.80;;
15153;SDS011;7677;41.896;25.004;2023-06-22T01:36:46;5.28;;;3.83;;
15153;SDS011;7677;41.896;25.004;2023-06-22T01:39:14;3.83;;;3.50;;
15153;SDS011;7677;41.896;25.004;2023-06-22T01:41:42;4.57;;;4.18;;
15153;SDS011;7677;41.896;25.004;2023-06-22T01:44:09;4.85;;;4.15;;
15153;SDS011;7677;41.896;25.004;2023-06-22T01:46:38;4.00;;;3.67;;
15153;SDS011;7677;41.896;25.004;2023-06-22T01:49:06;4.57;;;3.75;;
15153;SDS011;7677;41.896;25.004;2023-06-22T01:51:34;4.20;;;3.80;;
15153;SDS011;7677;41.896;25.004;2023-06-22T01:54:01;4.32;;;3.50;;
15153;SDS011;7677;41.896;25.004;2023-06-22T01:56:29;5.03;;;4.03;;
15153;SDS011;7677;41.896;25.004;2023-06-22T01:58:57;10.18;;;4.15;;
15153;SDS011;7677;41.896;25.004;2023-06-22T02:01:29;4.22;;;3.80;;
15153;SDS011;7677;41.896;25.004;2023-06-22T02:04:02;3.90;;;3.50;;
15153;SDS011;7677;41.896;25.004;2023-06-22T02:06:33;4.07;;;3.78;;
15153;SDS011;7677;41.896;25.004;2023-06-22T02:09:02;5.35;;;3.42;;
15153;SDS011;7677;41.896;25.004;2023-06-22T02:11:34;4.03;;;3.72;;
15153;SDS011;7677;41.896;25.004;2023-06-22T02:14:01;4.85;;;3.65;;
15153;SDS011;7677;41.896;25.004;2023-06-22T02:16:29;4.00;;;3.55;;
15153;SDS011;7677;41.896;25.004;2023-06-22T02:18:57;4.75;;;3.78;;
15153;SDS011;7677;41.896;25.004;2023-06-22T02:21:29;4.70;;;3.67;;
15153;SDS011;7677;41.896;25.004;2023-06-22T02:23:56;4.68;;;3.88;;
15153;SDS011;7677;41.896;25.004;2023-06-22T02:26:24;4.35;;;3.85;;
15153;SDS011;7677;41.896;25.004;2023-06-22T02:28:52;4.20;;;3.80;;
15153;SDS011;7677;41.896;25.004;2023-06-22T02:31:19;4.47;;;4.00;;
15153;SDS011;7677;41.896;25.004;2023-06-22T02:33:46;4.57;;;4.18;;
15153;SDS011;7677;41.896;25.004;2023-06-22T02:36:15;4.07;;;3.70;;
15153;SDS011;7677;41.896;25.004;2023-06-22T02:38:47;6.65;;;4.18;;
15153;SDS011;7677;41.896;25.004;2023-06-22T02:41:14;4.28;;;3.88;;
15153;SDS011;7677;41.896;25.004;2023-06-22T02:43:43;4.40;;;3.83;;
15153;SDS011;7677;41.896;25.004;2023-06-22T02:46:11;4.80;;;3.85;;
15153;SDS011;7677;41.896;25.004;2023-06-22T02:48:39;4.35;;;3.95;;
15153;SDS011;7677;41.896;25.004;2023-06-22T02:51:06;5.25;;;3.83;;
15153;SDS011;7677;41.896;25.004;2023-06-22T02:53:45;4.35;;;3.75;;
15153;SDS011;7677;41.896;25.004;2023-06-22T02:56:12;4.57;;;4.10;;
15153;SDS011;7677;41.896;25.004;2023-06-22T02:58:39;4.30;;;3.90;;
15153;SDS011;7677;41.896;25.004;2023-06-22T03:01:06;5.45;;;4.15;;
15153;SDS011;7677;41.896;25.004;2023-06-22T03:03:35;4.18;;;3.78;;
15153;SDS011;7677;41.896;25.004;2023-06-22T03:06:02;4.88;;;4.13;;
15153;SDS011;7677;41.896;25.004;2023-06-22T03:08:29;3.88;;;3.50;;
15153;SDS011;7677;41.896;25.004;2023-06-22T03:10:58;5.65;;;4.30;;
15153;SDS011;7677;41.896;25.004;2023-06-22T03:13:25;6.88;;;4.57;;
15153;SDS011;7677;41.896;25.004;2023-06-22T03:15:53;4.13;;;3.65;;
15153;SDS011;7677;41.896;25.004;2023-06-22T03:18:21;4.28;;;3.88;;
15153;SDS011;7677;41.896;25.004;2023-06-22T03:20:48;4.30;;;3.45;;
15153;SDS011;7677;41.896;25.004;2023-06-22T03:23:15;4.32;;;3.88;;
15153;SDS011;7677;41.896;25.004;2023-06-22T03:25:42;3.85;;;3.45;;
15153;SDS011;7677;41.896;25.004;2023-06-22T03:28:12;4.45;;;4.03;;
15153;SDS011;7677;41.896;25.004;2023-06-22T03:30:39;5.30;;;4.18;;
15153;SDS011;7677;41.896;25.004;2023-06-22T03:33:06;4.82;;;4.32;;
15153;SDS011;7677;41.896;25.004;2023-06-22T03:35:33;4.10;;;3.70;;
15153;SDS011;7677;41.896;25.004;2023-06-22T03:38:00;5.15;;;4.13;;
15153;SDS011;7677;41.896;25.004;2023-06-22T03:40:27;5.70;;;4.28;;
15153;SDS011;7677;41.896;25.004;2023-06-22T03:42:55;6.35;;;4.13;;
15153;SDS011;7677;41.896;25.004;2023-06-22T03:45:24;4.30;;;3.88;;
15153;SDS011;7677;41.896;25.004;2023-06-22T03:47:51;4.43;;;3.67;;
15153;SDS011;7677;41.896;25.004;2023-06-22T03:50:18;4.32;;;3.42;;
15153;SDS011;7677;41.896;25.004;2023-06-22T03:52:46;4.07;;;3.70;;
15153;SDS011;7677;41.896;25.004;2023-06-22T03:55:13;4.45;;;4.05;;
15153;SDS011;7677;41.896;25.004;2023-06-22T03:57:40;4.65;;;4.00;;
15153;SDS011;7677;41.896;25.004;2023-06-22T04:00:08;4.78;;;4.32;;
15153;SDS011;7677;41.896;25.004;2023-06-22T04:02:37;4.28;;;3.88;;
15153;SDS011;7677;41.896;25.004;2023-06-22T04:05:05;4.80;;;4.30;;
15153;SDS011;7677;41.896;25.004;2023-06-22T04:07:32;4.22;;;3.85;;
15153;SDS011;7677;41.896;25.004;2023-06-22T04:10:02;4.45;;;4.05;;
15153;SDS011;7677;41.896;25.004;2023-06-22T04:12:29;4.93;;;4.45;;
15153;SDS011;7677;41.896;25.004;2023-06-22T04:14:57;4.30;;;3.88;;
15153;SDS011;7677;41.896;25.004;2023-06-22T04:17:24;4.65;;;4.25;;
15153;SDS011;7677;41.896;25.004;2023-06-22T04:19:52;4.82;;;3.75;;
15153;SDS011;7677;41.896;25.004;2023-06-22T04:22:19;4.10;;;3.70;;
15153;SDS011;7677;41.896;25.004;2023-06-22T04:24:46;6.03;;;4.50;;
15153;SDS011;7677;41.896;25.004;2023-06-22T04:27:14;4.00;;;3.60;;
15153;SDS011;7677;41.896;25.004;2023-06-22T04:29:41;5.43;;;4.00;;
15153;SDS011;7677;41.896;25.004;2023-06-22T04:32:14;5.32;;;4.32;;
15153;SDS011;7677;41.896;25.004;2023-06-22T04:34:41;4.70;;;4.10;;
15153;SDS011;7677;41.896;25.004;2023-06-22T04:37:10;4.35;;;3.95;;
15153;SDS011;7677;41.896;25.004;2023-06-22T04:39:40;4.68;;;4.28;;
15153;SDS011;7677;41.896;25.004;2023-06-22T04:42:08;6.40;;;4.43;;
15153;SDS011;7677;41.896;25.004;2023-06-22T04:44:35;4.65;;;3.95;;
15153;SDS011;7677;41.896;25.004;2023-06-22T04:47:02;4.30;;;3.78;;
15153;SDS011;7677;41.896;25.004;2023-06-22T04:49:31;4.32;;;3.92;;
15153;SDS011;7677;41.896;25.004;2023-06-22T04:51:59;5.07;;;4.30;;
15153;SDS011;7677;41.896;25.004;2023-06-22T04:54:28;4.57;;;4.18;;
15153;SDS011;7677;41.896;25.004;2023-06-22T04:56:58;4.80;;;4.30;;
15153;SDS011;7677;41.896;25.004;2023-06-22T04:59:26;4.50;;;4.05;;
15153;SDS011;7677;41.896;25.004;2023-06-22T05:01:55;4.65;;;4.25;;
15153;SDS011;7677;41.896;25.004;2023-06-22T05:04:22;5.13;;;4.47;;
15153;SDS011;7677;41.896;25.004;2023-06-22T05:06:49;4.72;;;4.30;;
15153;SDS011;7677;41.896;25.004;2023-06-22T05:09:17;5.05;;;4.55;;
15153;SDS011;7677;41.896;25.004;2023-06-22T05:11:45;4.85;;;4.35;;
15153;SDS011;7677;41.896;25.004;2023-06-22T05:14:12;5.18;;;4.50;;
15153;SDS011;7677;41.896;25.004;2023-06-22T05:16:41;4.68;;;4.28;;
15153;SDS011;7677;41.896;25.004;2023-06-22T05:19:08;4.45;;;4.03;;
15153;SDS011;7677;41.896;25.004;2023-06-22T05:21:36;4.70;;;4.30;;
15153;SDS011;7677;41.896;25.004;2023-06-22T05:24:03;4.28;;;3.97;;
15153;SDS011;7677;41.896;25.004;2023-06-22T05:26:31;4.32;;;3.92;;
15153;SDS011;7677;41.896;25.004;2023-06-22T05:29:01;4.70;;;4.30;;
15153;SDS011;7677;41.896;25.004;2023-06-22T05:31:29;4.32;;;3.92;;
15153;SDS011;7677;41.896;25.004;2023-06-22T05:33:56;6.10;;;4.40;;
15153;SDS011;7677;41.896;25.004;2023-06-22T05:36:25;6.20;;;4.50;;
15153;SDS011;7677;41.896;25.004;2023-06-22T05:38:52;5.00;;;4.50;;
15153;SDS011;7677;41.896;25.004;2023-06-22T05:41:19;4.30;;;3.90;;
15153;SDS011;7677;41.896;25.004;2023-06-22T05:43:46;4.35;;;3.92;;
15153;SDS011;7677;41.896;25.004;2023-06-22T05:46:15;5.07;;;4.57;;
15153;SDS011;7677;41.896;25.004;2023-06-22T05:48:43;4.70;;;4.20;;
15153;SDS011;7677;41.896;25.004;2023-06-22T05:51:10;4.95;;;4.47;;
15153;SDS011;7677;41.896;25.004;2023-06-22T05:53:37;5.25;;;4.75;;
15153;SDS011;7677;41.896;25.004;2023-06-22T05:56:04;7.97;;;4.65;;
15153;SDS011;7677;41.896;25.004;2023-06-22T05:58:32;5.53;;;4.80;;
15153;SDS011;7677;41.896;25.004;2023-06-22T06:00:59;5.93;;;4.07;;
15153;SDS011;7677;41.896;25.004;2023-06-22T06:03:27;5.05;;;4.55;;
15153;SDS011;7677;41.896;25.004;2023-06-22T06:05:55;5.13;;;4.28;;
15153;SDS011;7677;41.896;25.004;2023-06-22T06:08:22;4.55;;;4.15;;
15153;SDS011;7677;41.896;25.004;2023-06-22T06:10:49;4.55;;;4.15;;
15153;SDS011;7677;41.896;25.004;2023-06-22T06:13:18;6.47;;;4.82;;
15153;SDS011;7677;41.896;25.004;2023-06-22T06:15:45;4.68;;;4.25;;
15153;SDS011;7677;41.896;25.004;2023-06-22T06:18:13;4.85;;;4.35;;
15153;SDS011;7677;41.896;25.004;2023-06-22T06:20:41;4.70;;;4.22;;
15153;SDS011;7677;41.896;25.004;2023-06-22T06:23:08;4.75;;;4.05;;
15153;SDS011;7677;41.896;25.004;2023-06-22T06:25:35;4.63;;;4.22;;
15153;SDS011;7677;41.896;25.004;2023-06-22T06:28:03;4.93;;;4.43;;
15153;SDS011;7677;41.896;25.004;2023-06-22T06:30:30;6.03;;;4.47;;
15153;SDS011;7677;41.896;25.004;2023-06-22T06:32:58;5.95;;;4.10;;
15153;SDS011;7677;41.896;25.004;2023-06-22T06:35:25;5.03;;;4.50;;
15153;SDS011;7677;41.896;25.004;2023-06-22T06:37:53;4.90;;;4.40;;
15153;SDS011;7677;41.896;25.004;2023-06-22T06:40:21;5.97;;;4.60;;
15153;SDS011;7677;41.896;25.004;2023-06-22T06:42:48;5.15;;;4.65;;
15153;SDS011;7677;41.896;25.004;2023-06-22T06:45:16;4.72;;;4.32;;
15153;SDS011;7677;41.896;25.004;2023-06-22T06:47:47;5.25;;;4.75;;
15153;SDS011;7677;41.896;25.004;2023-06-22T06:50:15;4.55;;;4.00;;
15153;SDS011;7677;41.896;25.004;2023-06-22T06:52:42;6.57;;;4.88;;
15153;SDS011;7677;41.896;25.004;2023-06-22T06:55:11;5.15;;;4.65;;
15153;SDS011;7677;41.896;25.004;2023-06-22T06:57:39;7.50;;;4.43;;
15153;SDS011;7677;41.896;25.004;2023-06-22T07:00:07;5.03;;;4.53;;
15153;SDS011;7677;41.896;25.004;2023-06-22T07:02:37;6.25;;;4.88;;
15153;SDS011;7677;41.896;25.004;2023-06-22T07:05:05;4.85;;;4.20;;
15153;SDS011;7677;41.896;25.004;2023-06-22T07:07:33;4.90;;;4.40;;
15153;SDS011;7677;41.896;25.004;2023-06-22T07:10:00;4.82;;;4.38;;
15153;SDS011;7677;41.896;25.004;2023-06-22T07:12:29;6.50;;;4.53;;
15153;SDS011;7677;41.896;25.004;2023-06-22T07:15:00;5.53;;;5.03;;
15153;SDS011;7677;41.896;25.004;2023-06-22T07:17:28;5.30;;;4.80;;
15153;SDS011;7677;41.896;25.004;2023-06-22T07:19:56;5.35;;;4.85;;
15153;SDS011;7677;41.896;25.004;2023-06-22T07:22:23;4.50;;;4.10;;
15153;SDS011;7677;41.896;25.004;2023-06-22T07:24:50;5.28;;;4.78;;
15153;SDS011;7677;41.896;25.004;2023-06-22T07:27:17;4.75;;;4.20;;
15153;SDS011;7677;41.896;25.004;2023-06-22T07:29:46;5.40;;;4.88;;
15153;SDS011;7677;41.896;25.004;2023-06-22T07:32:13;5.35;;;4.70;;
15153;SDS011;7677;41.896;25.004;2023-06-22T07:34:40;5.22;;;4.72;;
15153;SDS011;7677;41.896;25.004;2023-06-22T07:37:08;5.38;;;4.88;;
15153;SDS011;7677;41.896;25.004;2023-06-22T07:39:35;5.32;;;4.82;;
15153;SDS011;7677;41.896;25.004;2023-06-22T07:42:03;5.60;;;4.93;;
15153;SDS011;7677;41.896;25.004;2023-06-22T07:44:30;5.50;;;5.00;;
15153;SDS011;7677;41.896;25.004;2023-06-22T07:46:59;5.05;;;4.63;;
15153;SDS011;7677;41.896;25.004;2023-06-22T07:49:27;5.45;;;4.95;;
15153;SDS011;7677;41.896;25.004;2023-06-22T07:51:54;5.07;;;4.57;;
15153;SDS011;7677;41.896;25.004;2023-06-22T07:54:21;6.15;;;5.55;;
15153;SDS011;7677;41.896;25.004;2023-06-22T07:56:48;5.35;;;4.85;;
15153;SDS011;7677;41.896;25.004;2023-06-22T07:59:16;5.18;;;4.68;;
15153;SDS011;7677;41.896;25.004;2023-06-22T08:01:43;7.68;;;5.03;;
15153;SDS011;7677;41.896;25.004;2023-06-22T08:04:11;5.60;;;5.07;;
15153;SDS011;7677;41.896;25.004;2023-06-22T08:06:38;6.15;;;5.10;;
15153;SDS011;7677;41.896;25.004;2023-06-22T08:09:06;5.95;;;5.30;;
15153;SDS011;7677;41.896;25.004;2023-06-22T08:11:33;6.68;;;5.25;;
15153;SDS011;7677;41.896;25.004;2023-06-22T08:14:00;5.30;;;4.80;;
15153;SDS011;7677;41.896;25.004;2023-06-22T08:16:27;5.97;;;4.93;;
15153;SDS011;7677;41.896;25.004;2023-06-22T08:18:54;5.78;;;5.18;;
15153;SDS011;7677;41.896;25.004;2023-06-22T08:21:23;6.70;;;5.60;;
15153;SDS011;7677;41.896;25.004;2023-06-22T08:23:50;6.38;;;5.53;;
15153;SDS011;7677;41.896;25.004;2023-06-22T08:26:17;5.57;;;4.93;;
15153;SDS011;7677;41.896;25.004;2023-06-22T08:28:44;5.70;;;5.13;;
15153;SDS011;7677;41.896;25.004;2023-06-22T08:31:11;7.47;;;5.95;;
15153;SDS011;7677;41.896;25.004;2023-06-22T08:33:39;6.85;;;5.68;;
15153;SDS011;7677;41.896;25.004;2023-06-22T08:36:06;7.32;;;5.38;;
15153;SDS011;7677;41.896;25.004;2023-06-22T08:38:37;8.13;;;5.45;;
15153;SDS011;7677;41.896;25.004;2023-06-22T08:41:04;7.63;;;5.78;;
15153;SDS011;7677;41.896;25.004;2023-06-22T08:43:31;6.00;;;5.25;;
15153;SDS011;7677;41.896;25.004;2023-06-22T08:45:59;8.27;;;5.80;;
15153;SDS011;7677;41.896;25.004;2023-06-22T08:48:27;6.40;;;5.53;;
15153;SDS011;7677;41.896;25.004;2023-06-22T08:50:55;7.93;;;5.93;;
15153;SDS011;7677;41.896;25.004;2023-06-22T08:53:22;6.30;;;5.70;;
15153;SDS011;7677;41.896;25.004;2023-06-22T08:55:50;5.57;;;5.07;;
15153;SDS011;7677;41.896;25.004;2023-06-22T08:58:17;6.28;;;5.68;;
15153;SDS011;7677;41.896;25.004;2023-06-22T09:00:46;7.10;;;5.47;;
15153;SDS011;7677;41.896;25.004;2023-06-22T09:03:13;7.93;;;6.00;;
15153;SDS011;7677;41.896;25.004;2023-06-22T09:05:40;5.78;;;5.20;;
15153;SDS011;7677;41.896;25.004;2023-06-22T09:08:07;6.10;;;5.50;;
15153;SDS011;7677;41.896;25.004;2023-06-22T09:10:34;5.95;;;5.38;;
15153;SDS011;7677;41.896;25.004;2023-06-22T09:13:03;6.22;;;5.60;;
15153;SDS011;7677;41.896;25.004;2023-06-22T09:15:30;5.82;;;5.00;;
15153;SDS011;7677;41.896;25.004;2023-06-22T09:17:59;6.00;;;5.20;;
15153;SDS011;7677;41.896;25.004;2023-06-22T09:20:27;5.63;;;4.78;;
15153;SDS011;7677;41.896;25.004;2023-06-22T09:22:54;5.78;;;4.90;;
15153;SDS011;7677;41.896;25.004;2023-06-22T09:25:21;8.88;;;5.25;;
15153;SDS011;7677;41.896;25.004;2023-06-22T09:27:49;5.22;;;4.72;;
15153;SDS011;7677;41.896;25.004;2023-06-22T09:30:17;6.85;;;5.00;;
15153;SDS011;7677;41.896;25.004;2023-06-22T09:32:48;4.78;;;4.22;;
15153;SDS011;7677;41.896;25.004;2023-06-22T09:35:15;5.72;;;4.45;;
15153;SDS011;7677;41.896;25.004;2023-06-22T09:37:43;5.00;;;4.50;;
15153;SDS011;7677;41.896;25.004;2023-06-22T09:40:10;5.45;;;4.82;;
15153;SDS011;7677;41.896;25.004;2023-06-22T09:42:38;5.00;;;4.38;;
15153;SDS011;7677;41.896;25.004;2023-06-22T09:45:06;8.23;;;4.53;;
15153;SDS011;7677;41.896;25.004;2023-06-22T09:47:35;5.20;;;4.70;;
15153;SDS011;7677;41.896;25.004;2023-06-22T09:50:03;5.10;;;4.60;;
15153;SDS011;7677;41.896;25.004;2023-06-22T09:52:31;6.00;;;4.65;;
15153;SDS011;7677;41.896;25.004;2023-06-22T09:54:58;4.72;;;4.25;;
15153;SDS011;7677;41.896;25.004;2023-06-22T09:57:25;5.20;;;4.70;;
15153;SDS011;7677;41.896;25.004;2023-06-22T09:59:52;9.40;;;4.93;;
15153;SDS011;7677;41.896;25.004;2023-06-22T10:02:19;5.63;;;4.43;;
15153;SDS011;7677;41.896;25.004;2023-06-22T10:04:48;5.22;;;4.72;;
15153;SDS011;7677;41.896;25.004;2023-06-22T10:07:15;4.97;;;4.43;;
15153;SDS011;7677;41.896;25.004;2023-06-22T10:09:43;4.72;;;4.30;;
15153;SDS011;7677;41.896;25.004;2023-06-22T10:12:10;6.07;;;4.55;;
15153;SDS011;7677;41.896;25.004;2023-06-22T10:14:37;4.88;;;4.38;;
15153;SDS011;7677;41.896;25.004;2023-06-22T10:17:04;4.75;;;4.35;;
15153;SDS011;7677;41.896;25.004;2023-06-22T10:19:32;5.43;;;4.88;;
15153;SDS011;7677;41.896;25.004;2023-06-22T10:22:03;4.30;;;3.90;;
15153;SDS011;7677;41.896;25.004;2023-06-22T10:24:31;5.40;;;4.90;;
15153;SDS011;7677;41.896;25.004;2023-06-22T10:26:58;4.90;;;4.40;;
15153;SDS011;7677;41.896;25.004;2023-06-22T10:29:26;4.72;;;3.97;;
15153;SDS011;7677;41.896;25.004;2023-06-22T10:31:53;5.32;;;4.72;;
15153;SDS011;7677;41.896;25.004;2023-06-22T10:34:20;4.57;;;4.18;;
15153;SDS011;7677;41.896;25.004;2023-06-22T10:36:47;4.70;;;4.30;;
15153;SDS011;7677;41.896;25.004;2023-06-22T10:39:16;4.75;;;4.25;;
15153;SDS011;7677;41.896;25.004;2023-06-22T10:41:43;4.45;;;4.05;;
15153;SDS011;7677;41.896;25.004;2023-06-22T10:44:10;4.75;;;4.35;;
15153;SDS011;7677;41.896;25.004;2023-06-22T10:46:37;5.85;;;4.30;;
15153;SDS011;7677;41.896;25.004;2023-06-22T10:49:04;4.68;;;4.25;;
15153;SDS011;7677;41.896;25.004;2023-06-22T10:51:31;4.70;;;4.30;;
15153;SDS011;7677;41.896;25.004;2023-06-22T10:53:58;4.90;;;4.40;;
15153;SDS011;7677;41.896;25.004;2023-06-22T10:56:27;4.72;;;3.85;;
15153;SDS011;7677;41.896;25.004;2023-06-22T10:58:54;4.53;;;4.13;;
15153;SDS011;7677;41.896;25.004;2023-06-22T11:01:21;4.07;;;3.78;;
15153;SDS011;7677;41.896;25.004;2023-06-22T11:03:49;4.78;;;4.20;;
15153;SDS011;7677;41.896;25.004;2023-06-22T11:06:16;4.70;;;4.30;;
15153;SDS011;7677;41.896;25.004;2023-06-22T11:08:43;4.65;;;4.15;;
15153;SDS011;7677;41.896;25.004;2023-06-22T11:11:11;4.07;;;3.78;;
15153;SDS011;7677;41.896;25.004;2023-06-22T11:13:39;4.28;;;3.88;;
15153;SDS011;7677;41.896;25.004;2023-06-22T11:16:07;5.10;;;3.75;;
15153;SDS011;7677;41.896;25.004;2023-06-22T11:18:34;4.65;;;4.25;;
15153;SDS011;7677;41.896;25.004;2023-06-22T11:21:01;4.90;;;3.78;;
15153;SDS011;7677;41.896;25.004;2023-06-22T11:23:28;4.25;;;3.85;;
15153;SDS011;7677;41.896;25.004;2023-06-22T11:25:55;4.85;;;4.35;;
15153;SDS011;7677;41.896;25.004;2023-06-22T11:28:23;4.47;;;4.07;;
15153;SDS011;7677;41.896;25.004;2023-06-22T11:30:51;4.20;;;3.80;;
15153;SDS011;7677;41.896;25.004;2023-06-22T11:33:18;8.70;;;4.28;;
15153;SDS011;7677;41.896;25.004;2023-06-22T11:35:45;4.43;;;4.05;;
15153;SDS011;7677;41.896;25.004;2023-06-22T11:38:12;5.68;;;4.47;;
15153;SDS011;7677;41.896;25.004;2023-06-22T11:40:40;5.22;;;3.85;;
15153;SDS011;7677;41.896;25.004;2023-06-22T11:43:07;5.30;;;4.80;;
15153;SDS011;7677;41.896;25.004;2023-06-22T11:45:34;4.25;;;3.90;;
15153;SDS011;7677;41.896;25.004;2023-06-22T11:48:03;4.60;;;4.20;;
15153;SDS011;7677;41.896;25.004;2023-06-22T11:50:30;4.70;;;4.20;;
15153;SDS011;7677;41.896;25.004;2023-06-22T11:53:01;4.85;;;4.35;;
15153;SDS011;7677;41.896;25.004;2023-06-22T11:55:28;5.35;;;4.45;;
15153;SDS011;7677;41.896;25.004;2023-06-22T11:57:56;5.00;;;4.50;;
15153;SDS011;7677;41.896;25.004;2023-06-22T12:00:25;4.35;;;3.95;;
15153;SDS011;7677;41.896;25.004;2023-06-22T12:02:52;4.43;;;4.03;;
15153;SDS011;7677;41.896;25.004;2023-06-22T12:05:22;5.32;;;4.65;;
15153;SDS011;7677;41.896;25.004;2023-06-22T12:07:49;4.65;;;4.25;;
15153;SDS011;7677;41.896;25.004;2023-06-22T12:10:19;4.53;;;4.13;;
15153;SDS011;7677;41.896;25.004;2023-06-22T12:12:46;4.40;;;4.00;;
15153;SDS011;7677;41.896;25.004;2023-06-22T12:15:14;5.10;;;4.55;;
15153;SDS011;7677;41.896;25.004;2023-06-22T12:17:41;4.68;;;4.28;;
15153;SDS011;7677;41.896;25.004;2023-06-22T12:20:08;4.38;;;3.97;;
15153;SDS011;7677;41.896;25.004;2023-06-22T12:22:37;4.88;;;4.47;;
15153;SDS011;7677;41.896;25.004;2023-06-22T12:25:05;4.45;;;4.05;;
15153;SDS011;7677;41.896;25.004;2023-06-22T12:27:33;5.55;;;4.28;;
15153;SDS011;7677;41.896;25.004;2023-06-22T12:30:00;4.50;;;4.10;;
15153;SDS011;7677;41.896;25.004;2023-06-22T12:32:27;4.80;;;4.30;;
15153;SDS011;7677;41.896;25.004;2023-06-22T12:34:55;4.97;;;4.47;;
15153;SDS011;7677;41.896;25.004;2023-06-22T12:37:22;4.93;;;4.53;;
15153;SDS011;7677;41.896;25.004;2023-06-22T12:39:51;5.40;;;4.40;;
15153;SDS011;7677;41.896;25.004;2023-06-22T12:42:19;4.97;;;4.50;;
15153;SDS011;7677;41.896;25.004;2023-06-22T12:44:46;5.28;;;4.72;;
15153;SDS011;7677;41.896;25.004;2023-06-22T12:47:13;6.15;;;4.85;;
15153;SDS011;7677;41.896;25.004;2023-06-22T12:49:41;5.50;;;4.85;;
15153;SDS011;7677;41.896;25.004;2023-06-22T12:52:10;5.72;;;4.97;;
15153;SDS011;7677;41.896;25.004;2023-06-22T12:54:38;5.53;;;4.63;;
15153;SDS011;7677;41.896;25.004;2023-06-22T12:57:06;4.93;;;4.43;;
15153;SDS011;7677;41.896;25.004;2023-06-22T12:59:33;5.45;;;4.43;;
15153;SDS011;7677;41.896;25.004;2023-06-22T13:02:01;4.85;;;4.45;;
15153;SDS011;7677;41.896;25.004;2023-06-22T13:04:28;4.57;;;4.18;;
15153;SDS011;7677;41.896;25.004;2023-06-22T13:06:55;5.60;;;4.72;;
15153;SDS011;7677;41.896;25.004;2023-06-22T13:09:22;5.65;;;4.65;;
15153;SDS011;7677;41.896;25.004;2023-06-22T13:11:49;4.90;;;4.43;;
15153;SDS011;7677;41.896;25.004;2023-06-22T13:14:19;5.40;;;4.90;;
15153;SDS011;7677;41.896;25.004;2023-06-22T13:16:46;5.28;;;4.65;;
15153;SDS011;7677;41.896;25.004;2023-06-22T13:19:13;5.13;;;4.63;;
15153;SDS011;7677;41.896;25.004;2023-06-22T13:21:41;5.63;;;5.13;;
15153;SDS011;7677;41.896;25.004;2023-06-22T13:24:08;5.47;;;4.97;;
15153;SDS011;7677;41.896;25.004;2023-06-22T13:26:35;5.38;;;4.85;;
15153;SDS011;7677;41.896;25.004;2023-06-22T13:29:02;5.53;;;5.03;;
15153;SDS011;7677;41.896;25.004;2023-06-22T13:31:31;5.25;;;4.75;;
15153;SDS011;7677;41.896;25.004;2023-06-22T13:33:58;6.30;;;5.40;;
15153;SDS011;7677;41.896;25.004;2023-06-22T13:36:25;5.53;;;5.03;;
15153;SDS011;7677;41.896;25.004;2023-06-22T13:38:56;6.15;;;5.03;;
15153;SDS011;7677;41.896;25.004;2023-06-22T13:41:23;5.50;;;5.00;;
15153;SDS011;7677;41.896;25.004;2023-06-22T13:43:51;6.03;;;5.28;;
15153;SDS011;7677;41.896;25.004;2023-06-22T13:46:20;5.90;;;5.30;;
15153;SDS011;7677;41.896;25.004;2023-06-22T13:48:49;5.60;;;5.10;;
15153;SDS011;7677;41.896;25.004;2023-06-22T13:51:16;4.85;;;4.40;;
15153;SDS011;7677;41.896;25.004;2023-06-22T13:53:43;6.72;;;5.28;;
15153;SDS011;7677;41.896;25.004;2023-06-22T13:56:10;5.68;;;5.18;;
15153;SDS011;7677;41.896;25.004;2023-06-22T13:58:37;5.30;;;4.80;;
15153;SDS011;7677;41.896;25.004;2023-06-22T14:01:05;7.07;;;4.90;;
15153;SDS011;7677;41.896;25.004;2023-06-22T14:03:32;5.53;;;4.93;;
15153;SDS011;7677;41.896;25.004;2023-06-22T14:06:00;5.70;;;5.20;;
15153;SDS011;7677;41.896;25.004;2023-06-22T14:08:27;5.28;;;4.63;;
15153;SDS011;7677;41.896;25.004;2023-06-22T14:10:55;5.63;;;4.45;;
15153;SDS011;7677;41.896;25.004;2023-06-22T14:13:26;5.65;;;5.10;;
15153;SDS011;7677;41.896;25.004;2023-06-22T14:15:54;5.82;;;5.18;;
15153;SDS011;7677;41.896;25.004;2023-06-22T14:18:21;7.35;;;5.25;;
15153;SDS011;7677;41.896;25.004;2023-06-22T14:20:48;5.82;;;5.22;;
15153;SDS011;7677;41.896;25.004;2023-06-22T14:23:17;5.40;;;4.93;;
15153;SDS011;7677;41.896;25.004;2023-06-22T14:25:44;5.93;;;5.43;;
15153;SDS011;7677;41.896;25.004;2023-06-22T14:28:11;5.75;;;5.22;;
15153;SDS011;7677;41.896;25.004;2023-06-22T14:30:39;5.88;;;5.28;;
15153;SDS011;7677;41.896;25.004;2023-06-22T14:33:06;6.30;;;5.03;;
15153;SDS011;7677;41.896;25.004;2023-06-22T14:35:33;7.85;;;4.88;;
15153;SDS011;7677;41.896;25.004;2023-06-22T14:38:00;6.32;;;4.65;;
15153;SDS011;7677;41.896;25.004;2023-06-22T14:40:29;6.22;;;5.05;;
15153;SDS011;7677;41.896;25.004;2023-06-22T14:42:56;6.30;;;5.70;;
15153;SDS011;7677;41.896;25.004;2023-06-22T14:45:23;5.30;;;4.80;;
15153;SDS011;7677;41.896;25.004;2023-06-22T14:47:50;5.63;;;5.03;;
15153;SDS011;7677;41.896;25.004;2023-06-22T14:50:17;7.25;;;5.80;;
15153;SDS011;7677;41.896;25.004;2023-06-22T14:52:44;5.88;;;5.28;;